KENW

Kenosha Regional Airport

Kenosha, Wisconsin, USA
METAR KENW 141253Z 27004KT 9SM CLR 22/20 A3001 RMK AO2 SLP156 T02170200
Observed Flight Rules
Aug-14 @ 12:53 UTC (50 minutes ago) Visual Flight Rules
Wind Visibility Clouds
270° at 4 knots 9 miles
  • Clear skies
Temperatures Readings
Current 22°C / 72°F
Dewpoint 20°C / 68°F
Humidity 88%
Altimeter 30.01" Hg
Pressure 1015.6 hPa
Elevation 219
METAR KENW 141253Z 27004KT 9SM CLR 22/20 A3001 RMK AO2 SLP156 T02170200
Observed Flight Rules
Aug-14 @ 12:53 UTC
(50 minutes ago)
VFR
Wind Visibility
270° at 4 knots 9 miles
Clouds
  • Clear skies
Temperature Dewpoint
22°C / 72°F 20°C / 68°F
Humidity Altimeter Pressure
88% 30.01" Hg 1015.6 hPa